Eupraxia — 2BXA2 — position and weather

sailwx.info

Track history (hours):
 
Tides and Currents Weather Stations Pressure Air Temp Water Temp Dewpoint Dewpoint Depression Visibility Wind Speed Wind Dir Waves Ship Positions

Eupraxia

Last reported at 2018-Apr-22 09:08 UTC. Time now 2018-Apr-23 03:42 UTC.
Position N 37°33' W 000°48'.

Length 17 m.

Type: Pleasure craft. MMSI: 235070075.

Date/timePositionNaut miles runAvg speedWind from/ knotsBaromVisibWave heightAir tempDewpointWater temp
2018-Apr-22 09:08N 37°33' W 000°48'1 8.1
2018-Apr-22 08:59N 37°34' W 000°47'4 8.4
2018-Apr-22 08:30N 37°36' W 000°42'4 8.5
2018-Apr-22 08:00N 37°40' W 000°39'4 8.1
2018-Apr-22 07:30N 37°43' W 000°37'4 7.8
2018-Apr-22 06:59N 37°47' W 000°37'4 7.9
2018-Apr-22 06:29N 37°51' W 000°38'4 7.8
2018-Apr-22 06:00N 37°55' W 000°39'4 6.6
2018-Apr-22 05:28N 37°58' W 000°41'0 0.5
2018-Apr-22 04:55N 37°58' W 000°41'0 0.0
2018-Apr-21 13:24N 37°58' W 000°41'0 0.0
2018-Apr-21 12:00N 37°58' W 000°41'1 1.0
2018-Apr-21 11:30N 37°58' W 000°40'  
Track history (hours):
 
Tides and Currents Weather Stations Pressure Air Temp Water Temp Dewpoint Dewpoint Depression Visibility Wind Speed Wind Dir Waves Ship Positions

Eupraxia

Last reported at 2018-Apr-22 09:08 UTC. Time now 2018-Apr-23 03:42 UTC.
Position N 37°33' W 000°48'.

Length 17 m.

Type: Pleasure craft. MMSI: 235070075.

Date/timePositionNaut miles runAvg speedWind from/ knotsBaromVisibWave heightAir tempDewpointWater temp
2018-Apr-22 09:08N 37°33' W 000°48'1 8.1
2018-Apr-22 08:59N 37°34' W 000°47'4 8.4
2018-Apr-22 08:30N 37°36' W 000°42'4 8.5
2018-Apr-22 08:00N 37°40' W 000°39'4 8.1
2018-Apr-22 07:30N 37°43' W 000°37'4 7.8
2018-Apr-22 06:59N 37°47' W 000°37'4 7.9
2018-Apr-22 06:29N 37°51' W 000°38'4 7.8
2018-Apr-22 06:00N 37°55' W 000°39'4 6.6
2018-Apr-22 05:28N 37°58' W 000°41'0 0.5
2018-Apr-22 04:55N 37°58' W 000°41'0 0.0
2018-Apr-21 13:24N 37°58' W 000°41'0 0.0
2018-Apr-21 12:00N 37°58' W 000°41'1 1.0
2018-Apr-21 11:30N 37°58' W 000°40'  

Dump ship's entire track history